createdAt,value
2018-06-22T00:02:17.171Z,58.2
2018-06-22T00:07:14.184Z,58.4
2018-06-22T00:12:11.314Z,58.7
2018-06-22T00:17:08.203Z,59
2018-06-22T00:22:04.900Z,59.4
2018-06-22T00:27:02.303Z,59.7
2018-06-22T00:31:59.303Z,59.6
2018-06-22T00:36:56.331Z,59.5
2018-06-22T00:41:53.419Z,59.5
2018-06-22T00:46:50.635Z,59.5
2018-06-22T00:51:47.557Z,59.5
2018-06-22T00:56:44.797Z,59.6
2018-06-22T01:01:42.180Z,59.8
2018-06-22T01:06:39.325Z,59.8
2018-06-22T01:11:36.209Z,60.3
2018-06-22T01:16:33.216Z,60.7
2018-06-22T01:21:30.276Z,61.2
2018-06-22T01:26:27.711Z,60.6
2018-06-22T01:31:24.713Z,60.9
2018-06-22T01:36:21.772Z,60.7
2018-06-22T01:41:19.125Z,61.1
2018-06-22T01:46:16.409Z,61.6
2018-06-22T01:51:13.293Z,61.6
2018-06-22T01:56:10.196Z,61.1
2018-06-22T02:01:07.820Z,61.5
2018-06-22T02:06:04.754Z,61.2
2018-06-22T02:11:01.733Z,61.1
2018-06-22T02:15:59.060Z,61.3
2018-06-22T02:20:56.287Z,61.5
2018-06-22T02:25:53.229Z,61.5
2018-06-22T02:30:50.528Z,61.6
2018-06-22T02:35:47.941Z,61.5
2018-06-22T02:40:44.925Z,61.6
2018-06-22T02:45:41.906Z,61.7
2018-06-22T02:50:39.311Z,61.9
2018-06-22T02:55:36.299Z,61.9
2018-06-22T03:00:33.347Z,61.9
2018-06-22T03:05:30.367Z,62.3
2018-06-22T03:10:27.361Z,62.2
2018-06-22T03:15:24.277Z,62.2
2018-06-22T03:20:21.315Z,62.2
2018-06-22T03:25:18.456Z,62.5
2018-06-22T03:30:15.546Z,62.4
2018-06-22T03:35:12.730Z,62.1
2018-06-22T03:40:09.728Z,62.2
2018-06-22T03:45:06.977Z,62.3
2018-06-22T03:50:04.110Z,62.2
2018-06-22T03:55:00.997Z,62.3
2018-06-22T03:59:58.107Z,62.8
2018-06-22T04:04:55.011Z,63.2
2018-06-22T04:09:52.331Z,63.2
2018-06-22T04:14:49.474Z,62.7
2018-06-22T04:19:46.490Z,63
2018-06-22T04:24:43.863Z,62.4
2018-06-22T04:29:41.017Z,62.8
2018-06-22T04:34:37.634Z,62.1
2018-06-22T04:39:33.776Z,61.6
2018-06-22T04:44:31.036Z,61.3
2018-06-22T04:49:28.108Z,61.5
2018-06-22T04:54:25.405Z,61.4
2018-06-22T04:59:22.541Z,61.6
2018-06-22T05:04:19.766Z,61.7
2018-06-22T05:09:16.789Z,61.8
2018-06-22T05:14:14.056Z,61.8
2018-06-22T05:19:11.187Z,62
2018-06-22T05:24:08.693Z,62.4
2018-06-22T05:29:05.803Z,62.6
2018-06-22T05:34:02.868Z,62.8
2018-06-22T05:38:59.895Z,63.1
2018-06-22T05:43:57.234Z,62.8
2018-06-22T05:48:54.421Z,63.1
2018-06-22T05:53:51.025Z,63.1
2018-06-22T05:58:48.306Z,63.2
2018-06-22T06:03:44.944Z,63.1
2018-06-22T06:08:42.147Z,63.4
2018-06-22T06:13:39.238Z,63.1
2018-06-22T06:18:35.950Z,63.3
2018-06-22T06:23:33.428Z,63.1
2018-06-22T06:28:30.954Z,63.2
2018-06-22T06:33:28.321Z,62.9
2018-06-22T06:38:25.501Z,62.9
2018-06-22T06:43:23.001Z,62.9
2018-06-22T06:48:19.683Z,62.7
2018-06-22T06:53:16.953Z,62.6
2018-06-22T06:58:14.139Z,62.5
2018-06-22T07:03:11.294Z,62.5
2018-06-22T07:08:09.031Z,62
2018-06-22T07:13:06.004Z,61.7
2018-06-22T07:18:02.895Z,61.7
2018-06-22T07:23:00.051Z,61.5
2018-06-22T07:27:59.207Z,61.6
2018-06-22T07:32:56.154Z,61.2
2018-06-22T07:37:53.589Z,61
2018-06-22T07:42:50.876Z,60.8
2018-06-22T07:47:48.210Z,60.4
2018-06-22T07:52:45.084Z,60.3
2018-06-22T07:57:42.437Z,60.1
2018-06-22T08:02:39.661Z,59.6
2018-06-22T08:07:36.860Z,59.4
2018-06-22T08:12:33.881Z,59.2
2018-06-22T08:17:31.386Z,59
2018-06-22T08:22:28.536Z,59
2018-06-22T08:27:24.634Z,58.8
2018-06-22T08:32:22.019Z,58.3
2018-06-22T08:37:20.183Z,57.5
2018-06-22T08:42:17.133Z,57.4
2018-06-22T08:47:14.064Z,57.6
2018-06-22T08:52:11.014Z,57.2
2018-06-22T08:57:08.313Z,57.1
2018-06-22T09:02:06.127Z,57
2018-06-22T09:07:03.259Z,56.4
2018-06-22T09:12:00.495Z,55.8
2018-06-22T09:16:57.726Z,55.7
2018-06-22T09:21:55.238Z,55.4
2018-06-22T09:26:52.482Z,54.9
2018-06-22T09:31:49.632Z,54.1
2018-06-22T09:36:47.056Z,54
2018-06-22T09:41:44.204Z,53.6
2018-06-22T09:46:41.055Z,53.1
2018-06-22T09:51:38.321Z,52.5
2018-06-22T09:56:35.921Z,52.1
2018-06-22T10:01:33.131Z,52.1
2018-06-22T10:06:30.408Z,50.9
2018-06-22T10:11:27.801Z,51
2018-06-22T10:16:25.057Z,51.2
2018-06-22T10:21:22.334Z,51.4
2018-06-22T10:26:19.741Z,47.2
2018-06-22T10:31:17.128Z,45.9
2018-06-22T10:36:14.689Z,46.3
2018-06-22T10:41:12.046Z,45.2
2018-06-22T10:46:09.494Z,44.5
2018-06-22T10:51:06.922Z,45.3
2018-06-22T10:56:04.519Z,44.5
2018-06-22T11:01:01.773Z,44.9
2018-06-22T11:05:59.122Z,44.9
2018-06-22T11:10:56.521Z,44.6
2018-06-22T11:15:54.191Z,44.9
2018-06-22T11:20:51.497Z,44.4
2018-06-22T11:25:48.773Z,43.9
2018-06-22T11:30:45.795Z,44.6
2018-06-22T11:35:42.796Z,45.9
2018-06-22T11:40:39.820Z,46.5
2018-06-22T11:45:36.811Z,48.6
2018-06-22T11:50:33.839Z,47.5
2018-06-22T11:55:31.351Z,46.4
2018-06-22T12:00:28.597Z,47.1
2018-06-22T12:05:25.783Z,50.5
2018-06-22T12:10:22.762Z,50.7
2018-06-22T12:15:19.879Z,53.2
2018-06-22T12:20:17.249Z,53.8
2018-06-22T12:25:14.507Z,55.2
2018-06-22T12:30:11.805Z,56.1
2018-06-22T12:35:09.000Z,57.3
2018-06-22T12:40:05.956Z,55.7
2018-06-22T12:45:03.327Z,55.9
2018-06-22T12:50:00.839Z,56.8
2018-06-22T12:54:55.482Z,57.5
2018-06-22T12:59:52.740Z,57.3
2018-06-22T13:04:50.154Z,56.7
2018-06-22T13:09:47.601Z,55
2018-06-22T13:14:45.165Z,54.4
2018-06-22T13:19:42.575Z,54.9
2018-06-22T13:24:40.194Z,55.7
2018-06-22T13:29:37.202Z,55.5
2018-06-22T13:34:34.845Z,55.4
2018-06-22T13:39:32.110Z,55.5
2018-06-22T13:44:29.521Z,55.2
2018-06-22T13:49:26.818Z,55.3
2018-06-22T13:54:24.171Z,54.8
2018-06-22T13:59:21.282Z,54.2
2018-06-22T14:04:18.834Z,53.8
2018-06-22T14:09:16.458Z,53.7
2018-06-22T14:14:13.756Z,53.9
2018-06-22T14:19:11.337Z,54.1
2018-06-22T14:24:08.455Z,53.6
2018-06-22T14:29:05.644Z,53.8
2018-06-22T14:34:02.961Z,54.2
2018-06-22T14:39:00.030Z,54.7
2018-06-22T14:43:56.981Z,54.9
2018-06-22T14:48:54.340Z,54.6
2018-06-22T14:53:51.876Z,54.2
2018-06-22T14:58:49.010Z,53.6
2018-06-22T15:03:46.349Z,53.5
2018-06-22T15:08:43.593Z,53.3
2018-06-22T15:13:40.335Z,53.9
2018-06-22T15:18:37.362Z,54.2
2018-06-22T15:23:34.769Z,54.8
2018-06-22T15:28:32.035Z,55.2
2018-06-22T15:33:30.059Z,54.5
2018-06-22T15:38:26.501Z,53.4
2018-06-22T15:43:23.680Z,50.9
2018-06-22T15:48:20.764Z,50.1
2018-06-22T15:53:17.953Z,49.5
2018-06-22T15:58:14.941Z,49.8
2018-06-22T16:03:12.221Z,50.5
2018-06-22T16:08:09.352Z,50.6
2018-06-22T16:13:12.517Z,50.7
2018-06-22T16:18:08.480Z,50.8
2018-06-22T16:23:05.318Z,50.9
2018-06-22T16:28:02.366Z,51.1
2018-06-22T16:32:59.724Z,51.4
2018-06-22T16:37:56.314Z,52.1
2018-06-22T16:42:53.745Z,52
2018-06-22T16:47:51.113Z,52.1
2018-06-22T16:52:48.432Z,52.1
2018-06-22T16:57:45.835Z,52.3
2018-06-22T17:02:43.044Z,52.4
2018-06-22T17:07:40.159Z,52.9
2018-06-22T17:12:37.360Z,53.6
2018-06-22T17:17:34.658Z,54.5
2018-06-22T17:22:32.089Z,55.4
2018-06-22T17:27:29.344Z,55.5
2018-06-22T17:32:26.826Z,56
2018-06-22T17:37:23.928Z,56.5
2018-06-22T17:42:21.613Z,56.6
2018-06-22T17:47:19.056Z,56.7
2018-06-22T17:52:16.413Z,56.7
2018-06-22T17:57:13.840Z,56.9
2018-06-22T18:02:11.122Z,57
2018-06-22T18:07:08.556Z,57.1
2018-06-22T18:12:05.940Z,57.4
2018-06-22T18:17:03.012Z,57.6
2018-06-22T18:22:00.007Z,57.6
2018-06-22T18:26:57.454Z,57.7
2018-06-22T18:31:54.830Z,58.7
2018-06-22T18:36:52.244Z,59.8
2018-06-22T18:41:49.530Z,59.4
2018-06-22T18:46:46.782Z,59.8
2018-06-22T18:51:43.956Z,59.3
2018-06-22T18:56:41.331Z,59.1
2018-06-22T19:01:38.649Z,59.2
2018-06-22T19:06:35.957Z,59.2
2018-06-22T19:11:33.326Z,58.7
2018-06-22T19:16:30.514Z,58.9
2018-06-22T19:21:27.536Z,58.9
2018-06-22T19:26:24.852Z,58.9
2018-06-22T19:31:22.216Z,58.6
2018-06-22T19:36:19.234Z,58.7
2018-06-22T19:41:16.403Z,58.7
2018-06-22T19:46:13.364Z,58.6
2018-06-22T19:51:10.634Z,58.6
2018-06-22T19:56:07.818Z,58.8
2018-06-22T20:01:04.983Z,59
2018-06-22T20:06:02.008Z,59.1
2018-06-22T20:10:59.546Z,59.5
2018-06-22T20:15:56.808Z,60.9
2018-06-22T20:20:54.220Z,61.4
2018-06-22T20:25:51.742Z,61.9
2018-06-22T20:30:48.682Z,60.7
2018-06-22T20:35:45.893Z,59.2
2018-06-22T20:40:42.894Z,58
2018-06-22T20:45:39.793Z,57.9
2018-06-22T20:50:36.657Z,57.7
2018-06-22T20:55:33.655Z,57.7
2018-06-22T21:00:30.231Z,58
2018-06-22T21:05:27.255Z,57.9
2018-06-22T21:10:24.959Z,58.1
2018-06-22T21:15:22.120Z,58.2
2018-06-22T21:20:19.272Z,58.2
2018-06-22T21:25:17.303Z,58.3
2018-06-22T21:30:14.290Z,58.1
2018-06-22T21:35:11.326Z,57.8
2018-06-22T21:40:08.139Z,57.2
2018-06-22T21:45:04.966Z,57.3
2018-06-22T21:50:01.948Z,56.2
2018-06-22T21:54:58.988Z,56.7
2018-06-22T21:59:55.902Z,56.5
2018-06-22T22:04:53.137Z,56.3
2018-06-22T22:09:50.368Z,56.3
2018-06-22T22:14:47.208Z,56.7
2018-06-22T22:19:45.066Z,56.8
2018-06-22T22:24:41.895Z,56.6
2018-06-22T22:29:39.032Z,56.8
2018-06-22T22:34:36.046Z,57.2
2018-06-22T22:39:33.422Z,57.9
2018-06-22T22:44:30.655Z,57.8
2018-06-22T22:49:27.784Z,58
2018-06-22T22:54:24.664Z,58.3
2018-06-22T22:59:21.653Z,58.6
2018-06-22T23:04:18.719Z,58.8
2018-06-22T23:09:16.473Z,58.7
2018-06-22T23:14:13.665Z,58.6
2018-06-22T23:19:10.707Z,58.4
2018-06-22T23:24:07.455Z,58.6
2018-06-22T23:29:04.701Z,58.7
2018-06-22T23:34:01.806Z,59.1
2018-06-22T23:38:59.089Z,59.1
2018-06-22T23:43:56.362Z,59.8
2018-06-22T23:48:53.788Z,59.8
2018-06-22T23:53:51.151Z,60
2018-06-22T23:58:48.436Z,60
